Report created: 2010-07-17T09:47:18+02:00

17th FAI European HG Class 1 Championship Ager 2010

2010-07-12 to 2010-07-23

TASK 4

2010-07-16 TASK4

Race to Goal 193,4 km

Provisional

No Dist. Id Radius
(meters)
Coordinates Open Close
1 0,0 km B01156 400 Lat: 42.04632 Lon: 0.74583 14:00:00+02:00 17:00:00+02:00
2 SS 8,0 km B37085 24000 Lat: 42.28983 Lon: 0.52967 14:45:00+02:00 21:00:00+02:00
3 31,6 km B37085 400 Lat: 42.28983 Lon: 0.52967 14:45:00+02:00 21:00:00+02:00
4 70,4 km B43071 400 Lat: 42.50368 Lon: 0.15522 14:45:00+02:00 21:00:00+02:00
5 161,2 km B40166 400 Lat: 42.19487 Lon: 1.18932 14:45:00+02:00 21:00:00+02:00
6 185,9 km B16070 400 Lat: 42.19702 Lon: 0.8804 14:45:00+02:00 21:00:00+02:00
7 ES 193,4 km GT04 400 Lat: 42.14611 Lon: 0.94611 14:45:00+02:00 21:00:00+02:00
StartGate(s): 14:45:00+02:00, 15:15:00+02:00, 15:45:00+02:00

# Id Name Nat Glider Sponsor SS ES Time km/h Dist. Dist.
Points
Lead.
Points
Time
Points
Arr.
Pos
Points
Total
1 17 Franz Herrmann M SUI Aeros Combat L14 14:45:00 18:10:22 03:25:22 54,2 193,39 379,6 103,6 433,6 77,4 994
2 1 Jon Durand Jnr M AUS Moyes Litespeed RS 3,5 14:45:00 18:10:33 03:25:33 54,1 193,39 379,6 102,6 427,5 74,8 985
3 10 Mario Alonzi M FRA Aeros Combat 09 13.2 14:45:00 18:11:23 03:26:23 53,9 193,39 379,6 97,9 414,6 72,2 964
4 15 Attila Bertok M HUN Moyes Litespeed 14:45:00 18:11:59 03:26:59 53,7 193,39 379,6 108,4 407,7 67,2 963
5 3 Thomas Weissenberger M AUT Moyes Litespeed RS3.5 14:45:00 18:11:56 03:26:56 53,7 193,39 379,6 104,7 408,2 69,7 962
6 7 Gerolf Heinrichs M AUT Moyes Litespeed Litespeed RS-3.5 14:45:00 18:18:34 03:33:34 52,1 193,39 379,6 94,3 357,2 64,9 896
7 6 Martin Harri M SUI Moyes Litespeed RS 3.5 14:45:00 18:22:30 03:37:30 51,1 193,39 379,6 98,0 334,4 62,6 875
8 2 Primoz Gricar M SLO Aeros Combat 09 13,2 14:45:00 18:32:21 03:47:21 48,9 193,39 379,6 83,7 286,3 60,4 810
9 14 Balazs Ujhelyi M HUN Moyes Litespeed RS4 14:45:00 18:32:40 03:47:40 48,9 193,39 379,6 82,9 284,8 58,3 806
10 40 Wolfgang Siess M AUT Wills Wing T2C 154 14:45:00 18:34:04 03:49:04 48,6 193,39 379,6 73,3 278,7 54,2 786
11 42 Roland Wöhrle M GER Moyes Litespeed LS4 RS Spk. Hasl/Zell, Skyline 14:45:00 18:35:14 03:50:14 48,3 193,39 379,6 78,4 273,6 48,6 780
12 8 Alessandro Ploner M ITA Laminar Z9 (Icaro) 14:45:00 18:33:53 03:48:53 48,6 193,39 379,6 63,2 279,5 56,2 779
13 9 Luis Rizo Salom M FRA Wills Wing T2C 144 14:45:00 18:34:42 03:49:42 48,4 193,39 379,6 70,1 275,9 52,3 778
14 53 Dan Vyhnalik M CZE Aeros Combat 09 14L 14:45:00 18:35:26 03:50:26 48,3 193,39 379,6 74,3 272,8 46,9 774
15 11 Elio Cataldi M ITA Wills Wing T2C 14:45:00 18:34:49 03:49:49 48,4 193,39 379,6 65,0 275,4 50,4 770
16 46 Lars Bo Johansen M DEN Aeros Combat L15 15:15:00 18:55:02 03:40:02 50,5 193,39 379,6 33,8 321,1 26,0 761
17 34 Gerd Doenhuber M GER Moyes Litespeed LS RS 3.5 Skyline 14:45:00 18:37:28 03:52:28 47,8 193,39 379,6 69,1 264,2 45,2 758
18 55 Grant Crossingham M GBR Moyes Litespeed RS 3.5 14:45:00 18:39:46 03:54:46 47,4 193,39 379,6 79,7 254,8 42,0 756
19 16 Manfred Trimmel M AUT Aeros Combat 14:45:00 18:39:17 03:54:17 47,5 193,39 379,6 73,9 256,7 43,6 754
20 4 Carl Wallbank M GBR Moyes Litespeed RS 3.5 14:45:00 18:42:30 03:57:30 46,8 193,39 379,6 80,2 243,8 37,7 741
21 43 Anton Struganov M RUS Aeros Combat L 13 09 14:45:00 18:40:56 03:55:56 47,1 193,39 379,6 66,8 250,1 39,1 736
22 75 Petr Nedoma M CZE Aeros Combat 09 14,2 14:45:00 18:40:46 03:55:46 47,2 193,39 379,6 61,8 250,7 40,5 733
23 22 Gordon Rigg M GBR Moyes Litespeed S4 14:45:00 18:44:01 03:59:01 46,5 193,39 379,6 76,0 237,9 36,4 730
24 18 Steve Blenkinsop M AUS Moyes Litespeed S 3.5 14:45:00 18:46:33 04:01:33 46,0 193,39 379,6 68,5 228,2 35,1 711
25 155 Marc Utrillo M ESP Aeros Combat L09 14:45:00 18:47:41 04:02:41 45,8 193,39 379,6 63,9 223,9 33,9 701
26 33 Franc Peternel M SLO Aeros Combat 09 13,7 14:45:00 18:49:17 04:04:17 45,5 193,39 379,6 61,1 218,0 31,6 690
27 56 Massimo Turiaco M BRA Aeros Combat 14:45:00 18:49:15 04:04:15 45,5 193,39 379,6 57,0 218,1 32,7 687
28 45 Dave Matthews M GBR Moyes Litespeed S 3.5 14:45:00 18:52:29 04:07:29 44,9 193,39 379,6 65,6 206,3 28,6 680
29 44 Walter Mayer M AUT Moyes Litespeed 14:45:00 18:49:41 04:04:41 45,5 193,39 379,6 51,3 216,5 30,6 678
30 41 Andre Djamarani M GER Aeros Combat 14 - 2009 14:45:00 18:51:16 04:06:16 45,2 193,39 379,6 55,1 210,7 29,6 675
31 23 Davide Guiducci M ITA LITESPEED S3,5 (Moyes) 14:45:00 18:55:01 04:10:01 44,5 193,39 379,6 48,0 197,3 26,8 652
32 51 Petr Tucek M CZE Aeros COMBAT 14 L 14:45:00 18:58:12 04:13:12 43,9 193,39 379,6 56,9 186,2 25,2 648
33 13 Vladimir Leuskov M RUS Moyes Litespeed RS 14:45:00 18:59:01 04:14:01 43,8 193,39 379,6 59,2 183,4 22,4 645
33 57 Larry Bunner M USA Wills Wing T2C 144 14:45:00 18:58:30 04:13:30 43,9 193,39 379,6 56,9 185,2 23,7 645
35 21 Christian Voiblet M SUI Aeros X 13,2 14:45:00 18:53:51 04:08:51 44,7 193,39 379,6 32,3 201,4 27,7 641
36 70 Jochen Zeischka M BEL Aeros Combat L 14.2 14:45:00 18:58:23 04:13:23 43,9 193,39 379,6 49,8 185,6 24,4 639
37 48 Oliver Barthelmes M GER Moyes Litespeed RS 4 14:45:00 19:00:05 04:15:05 43,6 193,39 379,6 55,1 179,8 21,8 636
38 95 Péter Szász M HUN Moyes Litespeed 3.5 14:45:00 19:01:09 04:16:09 43,4 193,39 379,6 56,9 176,1 20,3 633
39 63 Koos De Keijzer M NED Icaro Laminar Z08 14:45:00 18:58:55 04:13:55 43,8 193,39 379,6 43,4 183,7 23,0 630
40 38 Artur Dzamikhov M RUS Aeros Combat 09 14:45:00 19:00:23 04:15:23 43,6 193,39 379,6 43,1 178,7 21,3 623
41 35 Corinna Schwiegershausen F GER Moyes Litespeed S 3,5 14:45:00 19:05:37 04:20:37 42,7 193,39 379,6 53,3 161,3 19,4 614
42 52 James Stinnet M USA Wills Wing T2C 14:45:00 19:00:34 04:15:34 43,5 193,39 379,6 34,7 178,1 20,7 613
43 67 Petr Cejka M CZE Aeros Combat 09 13,2 14:45:00 19:04:32 04:19:32 42,9 193,39 379,6 34,3 164,8 19,8 599
44 50 Eric Mathurin M FRA Moyes Litespeed RS 4 14:45:00 19:09:21 04:24:21 42,1 193,39 379,6 50,9 149,1 18,6 598
45 36 Laurent Thevenot M FRA Aeros combat-L 15:15:00 19:29:20 04:14:20 43,7 193,39 379,6 15,5 182,3 16,9 594
46 76 Maxim Sadovnikov M RUS Aeros Combat L 13 07 14:45:00 19:13:08 04:28:08 41,5 193,39 379,6 56,8 137,1 18,0 592
47 49 Francis Gafner M SUI Moyes Litespeed RS 3.5 14:45:00 19:11:58 04:26:58 41,7 193,39 379,6 48,4 140,8 18,3 587
48 54 Filippo Oppici M ITA Moyes LITESPEED RS4 14:45:00 19:08:34 04:23:34 42,2 193,39 379,6 30,3 151,7 19,0 581
49 73 Miroslav Cap M CZE Aeros Combat L14 14:45:00 19:15:09 04:30:09 41,2 193,39 379,6 43,8 130,8 17,4 572
50 72 Rob In 'T Groen M NED Moyes Litespeed S 4 14:45:00 19:14:42 04:29:42 41,2 193,39 379,6 38,6 132,2 17,7 568
51 103 Carole Tobler F SUI Moyes litespeed s 3.5 14:45:00 19:27:01 04:42:01 39,4 193,39 379,6 29,4 94,8 17,2 521
52 90 Emmanuel Felix-Faure M FRA Aeros combat-L 14:45:00 19:40:57 04:55:57 37,6 193,39 379,6 38,1 55,0 16,0 489
53 102 Natalia Petrova F RUS 14:45:00 19:36:41 04:51:41 38,1 193,39 379,6 20,6 66,9 16,6 484
54 66 Zsolt Balogh M HUN Moyes Litespeed S 4.5 14:45:00 19:36:15 04:51:15 38,2 193,39 379,6 15,5 68,2 16,7 480
55 85 Tanno Rutten M NED Wills Wing T2 154 14:45:00 19:38:04 04:53:04 38,0 193,39 379,6 19,3 63,0 16,4 478
56 78 Jiri Nadvornik M CZE Aeros Combat L13 14:45:00 19:38:07 04:53:07 37,9 193,39 379,6 18,7 62,9 16,2 477
57 26 Anton Moroder M ITA Laminar Z9 (Icaro) 14:45:00 19:38:55 04:53:55 37,8 193,39 379,6 17,2 60,6 16,1 474
58 64 Alan Sattler M SLO Aeros Combat L 07 14:45:00 19:46:49 05:01:49 36,9 193,39 379,6 31,0 38,8 15,9 465
59 60 Matjaz Klemencic M SLO Aeros Combat L 14:45:00 192,00 378,2 64,7 443
60 12 Christian Ciech M ITA Laminar Z9 (Icaro) 14:45:00 191,15 376,5 63,6 440
61 28 Blay Olmos Quesada (Jnr) M ESP Moyes RS 3.5 14:45:00 187,13 364,4 73,1 438
62 27 Pedro Garcia Morelli M ESP Aeros Combat L 13.2 14:45:00 191,58 377,4 36,8 414
63 77 Martin Van Helden M NED Icaro Laminar Z09 14:45:00 191,23 376,7 26,0 403
64 24 David Shields M GBR Moyes Litespeed RS 4 15:15:00 191,71 377,7 24,0 402
65 82 Hiroshi Onuma M JPN Icaro2000 Laminar 09 14:45:00 187,15 364,4 35,0 399
66 80 Attila Kis M HUN Aeros Combat L13 14:45:00 20:10:16 05:25:16 34,2 193,39 379,6 0,6 15,6 396
67 69 Didu Bartschi M SUI Aeros Combat L13 14:45:00 20:28:51 05:43:51 32,3 193,39 379,6 15,6 395
67 71 Evgeny Kovalev M RUS Aeros Combat L-13 15:15:00 20:36:35 05:21:35 34,6 193,39 379,6 15,5 395
67 37 Markus Ebenfeld M GER Icaro Laminar Zero 9 Team Icaro Fly & More 14:45:00 20:08:06 05:23:06 34,4 193,39 379,6 15,8 395
67 92 Alen Milosevic M CRO Aeros Combat L13 14:45:00 20:09:42 05:24:42 34,3 193,39 379,6 15,7 395
71 65 Maxim Usachev M RUS Combat Aeros L09 14:45:00 192,25 378,5 13,5 392
72 31 Joel Miron de Soto M ESP Aeros Combat L 12.8 14:45:00 187,97 367,1 15,0 382
73 101 Julia Kucherenko F RUS Aeros Combat 12 09 14:45:00 178,23 326,4 47,5 374
74 68 Tom Haagdorens M BEL Aeros Combat 09 14:45:00 181,47 342,1 20,2 362
75 30 Blay Olmos Ramos (Snr) M ESP Moyes RS 13 14:45:00 181,83 343,6 344
76 29 Alvaro Idigoras molina M ESP Wills Wing T2C 15:15:00 180,70 338,5 339
77 5 Gianpietro Zin M FRA Icaro 2000 Laminar Z9 14.1 14:45:00 150,08 241,3 16,2 258
78 86 Tibor Borbely M HUN Moyes Litespeed S 5 14:45:00 152,79 244,8 245
79 58 Kathleen Rigg F GBR Moyes Litespeed S 4 14:45:00 147,01 235,3 6,9 242
79 87 Takamitsu Oga M JPN Icaro Laminar Z9 14:45:00 150,24 241,5 242
81 20 Bruce Kavanagh M GBR Wills Wing T2C 144 Wills Wing, Brauniger, Airways 14:45:00 146,10 233,0 8,2 241
82 91 Takashi Sunama M JPN Wills Wing T2 144 14:45:00 146,61 234,4 2,6 237
83 74 Erik Van Keulen M NED Moyes Litespeed RS 3,5 14:45:00 144,72 229,0 229
84 89 Amir Shalom M ISR Icaro Laminar Zero 9 14:45:00 144,06 226,8 227
85 79 Sebastian Olifiruk M POL Moyes Litespeed S 3.5 14:45:00 127,07 167,2 167
86 88 Virpi Nieminen F FIN Aeros Combat 14:45:00 108,25 136,6 137
87 93 Dario Tomasic M CRO Icaro Laminar Zero 9 14:45:00 71,09 91,7 92
88 19 Roberto Nichele M SUI Wills Wing T2C-144 14:45:00 51,57 66,2 66
89 81 Dariusz Perenc M POL Icaro Laminar 09 15:15:00 50,15 63,8 64
90 25 Raimund Kaiser M AUT Icaro2000 Laminar Z9 13.7 DNF 0,0 0
90 83 Daphne Schelkers F NED Icaro Laminar Z09 DNF 0,0 0

Pilots absent from task (ABS)

Id Name

Pilots not yet processed (NYP)

Id Name

Task statistics

param value
ss_distance 185.374
task_distance 193.39
no_of_pilots_present 91
no_of_pilots_flying 89
no_of_pilots_lo 26
no_of_pilots_reaching_nom_dist 87
no_of_pilots_reaching_es 63
no_of_pilots_reaching_goal 63
sum_flown_distance 16207.789
best_dist 193.39
best_time 3.42277777777778
worst_time 5.73083333333333
no_of_pilots_in_competition 91
sum_dist_over_min 15317.789
first_start_time 2010-07-16T14:45:00+02:00
first_finish_time 2010-07-16T18:10:22+02:00
max_time_to_get_time_points 5.2728528513296
no_of_pilots_with_time_points 58
k 0.651685393258427
arrival_weight 0.0775022139271372
departure_weight 0
leading_weight 0.108503099497992
time_weight 0.434012397991968
distance_weight 0.379982288582902
smallest_leading_coefficient 3.42712619261233
available_points_distance 379.584543859064
available_points_time 433.558097498055
available_points_departure 0
available_points_leading 108.389524374514
available_points_arrival 77.4210888389384
time_validity 1
launch_validity 0.998953254570571
distance_validity 1
day_quality 0.998953254570571

Scoring formula settings

param value
id GAP2008
use_distance_points 1
use_time_points 1
use_departure_points 0
use_leading_points 1
use_arrival_position_points 1
use_arrival_time_points 0
min_dist 10
nom_dist 60
nom_time 1.5
nom_goal 0.3
day_quality 0
time_points_if_not_in_goal 0.8
jump_the_gun_factor 10
use_1000_points_for_max_day_quality 0
normalize_1000_before_day_quality 0
time_validity_based_on_pilot_with_speed_rank 1